GLO1847 SBVT-SBGL
Flight info
| Callsign | GLO1847 |
|---|---|
| Flight time | 0h 46m |
| Altitude | 30000 |
| Route | USVAG UN401 MOLSU |
| Aircraft | B738/M-SDE2E3FGHIRWXY/LB1 |
Departure
| Time | 2026-04-21 20:31 |
|---|---|
| Airport | Eurico de Aguiar Salles International Airport (SBVT) |
Arrival
| Time | 2026-04-21 21:17 |
|---|---|
| Airport | Rio Galeão – Tom Jobim International Airport (SBGL) |
| Time | Latitude | Longitude | Altitude | Speed | Heading |
|---|---|---|---|---|---|
| 2026-04-21 19:52 | -20.26534 | -40.28168 | 34 ft | 0 kts | 262° |
| 2026-04-21 20:19 | -20.26533 | -40.28165 | 34 ft | 2 kts | 263° |
| 2026-04-21 20:20 | -20.26531 | -40.28147 | 34 ft | 2 kts | 262° |
| 2026-04-21 20:20 | -20.26529 | -40.28130 | 32 ft | 2 kts | 260° |
| 2026-04-21 20:20 | -20.26526 | -40.28113 | 31 ft | 2 kts | 261° |
| 2026-04-21 20:20 | -20.26524 | -40.28095 | 34 ft | 2 kts | 262° |
| 2026-04-21 20:21 | -20.26518 | -40.28079 | 34 ft | 2 kts | 236° |
| 2026-04-21 20:21 | -20.26511 | -40.28063 | 34 ft | 2 kts | 276° |
| 2026-04-21 20:21 | -20.26518 | -40.28047 | 34 ft | 2 kts | 321° |
| 2026-04-21 20:21 | -20.26532 | -40.28038 | 30 ft | 2 kts | 339° |
| 2026-04-21 20:22 | -20.26543 | -40.28034 | 34 ft | 1 kts | 347° |
| 2026-04-21 20:22 | -20.26547 | -40.28033 | 34 ft | 0 kts | 349° |
| 2026-04-21 20:24 | -20.26487 | -40.28043 | 34 ft | 15 kts | 351° |
| 2026-04-21 20:24 | -20.26378 | -40.28060 | 32 ft | 16 kts | 352° |
| 2026-04-21 20:25 | -20.26270 | -40.28074 | 34 ft | 15 kts | 353° |
| 2026-04-21 20:25 | -20.26169 | -40.28088 | 34 ft | 15 kts | 352° |
| 2026-04-21 20:25 | -20.26071 | -40.28102 | 32 ft | 14 kts | 352° |
| 2026-04-21 20:25 | -20.25977 | -40.28115 | 35 ft | 13 kts | 353° |
| 2026-04-21 20:26 | -20.25887 | -40.28128 | 34 ft | 13 kts | 352° |
| 2026-04-21 20:26 | -20.25801 | -40.28141 | 32 ft | 13 kts | 352° |
| 2026-04-21 20:26 | -20.25700 | -40.28157 | 34 ft | 17 kts | 352° |
| 2026-04-21 20:26 | -20.25565 | -40.28178 | 33 ft | 22 kts | 352° |
| 2026-04-21 20:27 | -20.25401 | -40.28200 | 28 ft | 24 kts | 0° |
| 2026-04-21 20:27 | -20.25305 | -40.28155 | 28 ft | 0 kts | 32° |
| 2026-04-21 20:28 | -20.25298 | -40.28150 | 29 ft | 4 kts | 33° |
| 2026-04-21 20:28 | -20.25273 | -40.28133 | 29 ft | 6 kts | 32° |
| 2026-04-21 20:29 | -20.25216 | -40.28096 | 29 ft | 12 kts | 32° |
| 2026-04-21 20:29 | -20.25114 | -40.28067 | 27 ft | 19 kts | 354° |
| 2026-04-21 20:29 | -20.24968 | -40.28087 | 26 ft | 23 kts | 352° |
| 2026-04-21 20:29 | -20.24831 | -40.28089 | 24 ft | 14 kts | 27° |
| 2026-04-21 20:30 | -20.24789 | -40.28114 | 23 ft | 5 kts | 229° |
| 2026-04-21 20:30 | -20.24818 | -40.28109 | 26 ft | 4 kts | 172° |
| 2026-04-21 20:30 | -20.24846 | -40.28106 | 28 ft | 4 kts | 172° |
| 2026-04-21 20:30 | -20.25097 | -40.28068 | 26 ft | 81 kts | 172° |
| 2026-04-21 20:31 | -20.25934 | -40.27943 | 40 ft | 160 kts | 171° |
| 2026-04-21 20:31 | -20.27208 | -40.27755 | 467 ft | 202 kts | 174° |
| 2026-04-21 20:31 | -20.28684 | -40.27601 | 1213 ft | 221 kts | 174° |
| 2026-04-21 20:31 | -20.30257 | -40.27384 | 1995 ft | 240 kts | 171° |
| 2026-04-21 20:32 | -20.31972 | -40.27101 | 2710 ft | 252 kts | 171° |
| 2026-04-21 20:32 | -20.33713 | -40.26822 | 3582 ft | 256 kts | 172° |
| 2026-04-21 20:32 | -20.35484 | -40.26582 | 4382 ft | 261 kts | 180° |
| 2026-04-21 20:33 | -20.37241 | -40.27051 | 5201 ft | 264 kts | 210° |
| 2026-04-21 20:33 | -20.38608 | -40.28351 | 6034 ft | 266 kts | 234° |
| 2026-04-21 20:33 | -20.39942 | -40.29712 | 6857 ft | 271 kts | 211° |
| 2026-04-21 20:33 | -20.41653 | -40.30591 | 7666 ft | 274 kts | 206° |
| 2026-04-21 20:34 | -20.43377 | -40.31441 | 8454 ft | 277 kts | 206° |
| 2026-04-21 20:34 | -20.45132 | -40.32325 | 9280 ft | 280 kts | 207° |
| 2026-04-21 20:34 | -20.46896 | -40.33234 | 10085 ft | 283 kts | 207° |
| 2026-04-21 20:34 | -20.48708 | -40.34184 | 10513 ft | 300 kts | 207° |
| 2026-04-21 20:35 | -20.50657 | -40.35221 | 10678 ft | 325 kts | 207° |
| 2026-04-21 20:35 | -20.52718 | -40.36327 | 10903 ft | 344 kts | 207° |
| 2026-04-21 20:35 | -20.54892 | -40.37501 | 11395 ft | 353 kts | 207° |
| 2026-04-21 20:35 | -20.57099 | -40.38696 | 12008 ft | 357 kts | 207° |
| 2026-04-21 20:36 | -20.59330 | -40.39908 | 12636 ft | 362 kts | 207° |
| 2026-04-21 20:36 | -20.61591 | -40.41139 | 13214 ft | 367 kts | 207° |
| 2026-04-21 20:36 | -20.63888 | -40.42390 | 13742 ft | 374 kts | 207° |
| 2026-04-21 20:36 | -20.66226 | -40.43665 | 14253 ft | 379 kts | 207° |
| 2026-04-21 20:37 | -20.68582 | -40.44950 | 14829 ft | 381 kts | 207° |
| 2026-04-21 20:37 | -20.70950 | -40.46243 | 15386 ft | 384 kts | 207° |
| 2026-04-21 20:37 | -20.73315 | -40.47534 | 15915 ft | 387 kts | 206° |
| 2026-04-21 20:37 | -20.75725 | -40.48850 | 16443 ft | 390 kts | 206° |
| 2026-04-21 20:38 | -20.78153 | -40.50177 | 16985 ft | 393 kts | 206° |
| 2026-04-21 20:38 | -20.80605 | -40.51517 | 17499 ft | 396 kts | 206° |
| 2026-04-21 20:38 | -20.83072 | -40.52866 | 18010 ft | 400 kts | 206° |
| 2026-04-21 20:38 | -20.85549 | -40.54221 | 18485 ft | 403 kts | 206° |
| 2026-04-21 20:39 | -20.88026 | -40.55578 | 18938 ft | 405 kts | 207° |
| 2026-04-21 20:39 | -20.90335 | -40.57314 | 19380 ft | 408 kts | 224° |
| 2026-04-21 20:39 | -20.92055 | -40.59732 | 19868 ft | 409 kts | 237° |
| 2026-04-21 20:39 | -20.93569 | -40.62322 | 20326 ft | 411 kts | 238° |
| 2026-04-21 20:40 | -20.95060 | -40.64950 | 20760 ft | 414 kts | 238° |
| 2026-04-21 20:40 | -20.96549 | -40.67588 | 21190 ft | 416 kts | 238° |
| 2026-04-21 20:40 | -20.98054 | -40.70242 | 21632 ft | 418 kts | 238° |
| 2026-04-21 20:40 | -20.99553 | -40.72867 | 22058 ft | 419 kts | 237° |
| 2026-04-21 20:41 | -21.01086 | -40.75536 | 22469 ft | 421 kts | 237° |
| 2026-04-21 20:41 | -21.02624 | -40.78201 | 22888 ft | 423 kts | 237° |
| 2026-04-21 20:41 | -21.04189 | -40.80908 | 23299 ft | 425 kts | 237° |
| 2026-04-21 20:41 | -21.05734 | -40.83578 | 23684 ft | 427 kts | 237° |
| 2026-04-21 20:42 | -21.07321 | -40.86320 | 24025 ft | 428 kts | 237° |
| 2026-04-21 20:42 | -21.08872 | -40.89001 | 24378 ft | 429 kts | 237° |
| 2026-04-21 20:42 | -21.10449 | -40.91729 | 24721 ft | 430 kts | 237° |
| 2026-04-21 20:42 | -21.12026 | -40.94457 | 25064 ft | 431 kts | 238° |
| 2026-04-21 20:43 | -21.13609 | -40.97199 | 25384 ft | 432 kts | 238° |
| 2026-04-21 20:43 | -21.15193 | -40.99943 | 25703 ft | 434 kts | 238° |
| 2026-04-21 20:43 | -21.16783 | -41.02699 | 26031 ft | 435 kts | 238° |
| 2026-04-21 20:43 | -21.18352 | -41.05419 | 26351 ft | 435 kts | 238° |
| 2026-04-21 20:44 | -21.19945 | -41.08184 | 26653 ft | 437 kts | 238° |
| 2026-04-21 20:44 | -21.21543 | -41.10957 | 26966 ft | 438 kts | 238° |
| 2026-04-21 20:44 | -21.23144 | -41.13738 | 27316 ft | 437 kts | 238° |
| 2026-04-21 20:44 | -21.24738 | -41.16508 | 27771 ft | 434 kts | 238° |
| 2026-04-21 20:45 | -21.26319 | -41.19258 | 28268 ft | 431 kts | 238° |
| 2026-04-21 20:45 | -21.27886 | -41.21983 | 28743 ft | 428 kts | 238° |
| 2026-04-21 20:45 | -21.29448 | -41.24701 | 29172 ft | 426 kts | 238° |
| 2026-04-21 20:45 | -21.31000 | -41.27402 | 29603 ft | 425 kts | 238° |
| 2026-04-21 20:46 | -21.32525 | -41.30061 | 30009 ft | 424 kts | 238° |
| 2026-04-21 20:46 | -21.34074 | -41.32759 | 30025 ft | 426 kts | 238° |
| 2026-04-21 20:46 | -21.37170 | -41.38159 | 30051 ft | 422 kts | 238° |
| 2026-04-21 20:47 | -21.40250 | -41.43536 | 30049 ft | 422 kts | 239° |
| 2026-04-21 20:47 | -21.43312 | -41.48886 | 30045 ft | 422 kts | 239° |
| 2026-04-21 20:48 | -21.46389 | -41.54270 | 30046 ft | 422 kts | 239° |
| 2026-04-21 20:48 | -21.49461 | -41.59650 | 30052 ft | 422 kts | 239° |
| 2026-04-21 20:49 | -21.52512 | -41.64996 | 30054 ft | 422 kts | 239° |
| 2026-04-21 20:49 | -21.55582 | -41.70383 | 30057 ft | 423 kts | 239° |
| 2026-04-21 20:50 | -21.58654 | -41.75777 | 30058 ft | 423 kts | 239° |
| 2026-04-21 20:50 | -21.61727 | -41.81178 | 30051 ft | 423 kts | 239° |
| 2026-04-21 20:51 | -21.64775 | -41.86563 | 30059 ft | 422 kts | 241° |
| 2026-04-21 20:51 | -21.67006 | -41.91233 | 30061 ft | 422 kts | 245° |
| 2026-04-21 20:52 | -21.69940 | -41.97873 | 30046 ft | 421 kts | 245° |
| 2026-04-21 20:52 | -21.72039 | -42.02602 | 30049 ft | 421 kts | 245° |
| 2026-04-21 20:53 | -21.74588 | -42.08277 | 30053 ft | 420 kts | 245° |
| 2026-04-21 20:53 | -21.77149 | -42.13942 | 30049 ft | 420 kts | 245° |
| 2026-04-21 20:54 | -21.79694 | -42.19568 | 30052 ft | 419 kts | 245° |
| 2026-04-21 20:54 | -21.82247 | -42.25226 | 30064 ft | 419 kts | 245° |
| 2026-04-21 20:55 | -21.84792 | -42.30877 | 30058 ft | 419 kts | 245° |
| 2026-04-21 20:55 | -21.87318 | -42.36492 | 30068 ft | 419 kts | 245° |
| 2026-04-21 20:56 | -21.89809 | -42.42030 | 30060 ft | 400 kts | 245° |
| 2026-04-21 20:56 | -21.92223 | -42.47408 | 30066 ft | 399 kts | 245° |
| 2026-04-21 20:57 | -21.93432 | -42.50103 | 29820 ft | 401 kts | 245° |
| 2026-04-21 20:57 | -21.94636 | -42.52789 | 29508 ft | 395 kts | 245° |
| 2026-04-21 20:57 | -21.95815 | -42.55420 | 29099 ft | 391 kts | 245° |
| 2026-04-21 20:57 | -21.96991 | -42.58046 | 28654 ft | 388 kts | 245° |
| 2026-04-21 20:58 | -21.98159 | -42.60657 | 28230 ft | 384 kts | 245° |
| 2026-04-21 20:58 | -21.99319 | -42.63249 | 27803 ft | 382 kts | 245° |
| 2026-04-21 20:58 | -22.00470 | -42.65823 | 27383 ft | 379 kts | 245° |
| 2026-04-21 20:58 | -22.01596 | -42.68344 | 26972 ft | 377 kts | 245° |
| 2026-04-21 20:59 | -22.02734 | -42.70891 | 26554 ft | 375 kts | 245° |
| 2026-04-21 20:59 | -22.03863 | -42.73420 | 26142 ft | 373 kts | 245° |
| 2026-04-21 20:59 | -22.04989 | -42.75943 | 25709 ft | 373 kts | 245° |
| 2026-04-21 20:59 | -22.06112 | -42.78462 | 25289 ft | 372 kts | 245° |
| 2026-04-21 21:00 | -22.07236 | -42.80982 | 24860 ft | 371 kts | 245° |
| 2026-04-21 21:00 | -22.08342 | -42.83463 | 24447 ft | 371 kts | 245° |
| 2026-04-21 21:00 | -22.09458 | -42.85970 | 24030 ft | 370 kts | 245° |
| 2026-04-21 21:00 | -22.10572 | -42.88474 | 23586 ft | 370 kts | 245° |
| 2026-04-21 21:01 | -22.11729 | -42.90963 | 22989 ft | 373 kts | 242° |
| 2026-04-21 21:01 | -22.13031 | -42.93426 | 22189 ft | 381 kts | 240° |
| 2026-04-21 21:01 | -22.14410 | -42.95901 | 21452 ft | 387 kts | 239° |
| 2026-04-21 21:01 | -22.15813 | -42.98394 | 20739 ft | 391 kts | 239° |
| 2026-04-21 21:02 | -22.17229 | -43.00922 | 20034 ft | 395 kts | 239° |
| 2026-04-21 21:02 | -22.18629 | -43.03444 | 19363 ft | 399 kts | 239° |
| 2026-04-21 21:02 | -22.20055 | -43.06032 | 18686 ft | 402 kts | 239° |
| 2026-04-21 21:02 | -22.21486 | -43.08643 | 17970 ft | 404 kts | 239° |
| 2026-04-21 21:03 | -22.22919 | -43.11266 | 17212 ft | 405 kts | 239° |
| 2026-04-21 21:03 | -22.24349 | -43.13889 | 16461 ft | 406 kts | 239° |
| 2026-04-21 21:03 | -22.25786 | -43.16528 | 15758 ft | 407 kts | 239° |
| 2026-04-21 21:03 | -22.27200 | -43.19126 | 15057 ft | 407 kts | 238° |
| 2026-04-21 21:04 | -22.28650 | -43.21791 | 14368 ft | 406 kts | 238° |
| 2026-04-21 21:04 | -22.30063 | -43.24390 | 13686 ft | 406 kts | 238° |
| 2026-04-21 21:04 | -22.31490 | -43.27015 | 12925 ft | 405 kts | 239° |
| 2026-04-21 21:04 | -22.32915 | -43.29637 | 12185 ft | 403 kts | 239° |
| 2026-04-21 21:05 | -22.34328 | -43.32238 | 11457 ft | 401 kts | 239° |
| 2026-04-21 21:05 | -22.35726 | -43.34814 | 11094 ft | 389 kts | 239° |
| 2026-04-21 21:05 | -22.37062 | -43.37278 | 10993 ft | 371 kts | 239° |
| 2026-04-21 21:05 | -22.38342 | -43.39640 | 10897 ft | 355 kts | 239° |
| 2026-04-21 21:06 | -22.39566 | -43.41899 | 10812 ft | 341 kts | 239° |
| 2026-04-21 21:06 | -22.40816 | -43.44014 | 10711 ft | 327 kts | 230° |
| 2026-04-21 21:06 | -22.42441 | -43.45664 | 10543 ft | 314 kts | 216° |
| 2026-04-21 21:06 | -22.44159 | -43.47003 | 10312 ft | 303 kts | 216° |
| 2026-04-21 21:07 | -22.45846 | -43.48313 | 10077 ft | 293 kts | 216° |
| 2026-04-21 21:07 | -22.47473 | -43.49590 | 9751 ft | 286 kts | 216° |
| 2026-04-21 21:07 | -22.49066 | -43.50851 | 9301 ft | 282 kts | 217° |
| 2026-04-21 21:07 | -22.50642 | -43.52107 | 8827 ft | 280 kts | 217° |
| 2026-04-21 21:08 | -22.52208 | -43.53357 | 8253 ft | 281 kts | 217° |
| 2026-04-21 21:08 | -22.53801 | -43.54625 | 7601 ft | 286 kts | 215° |
| 2026-04-21 21:08 | -22.55608 | -43.55444 | 7321 ft | 279 kts | 189° |
| 2026-04-21 21:08 | -22.57472 | -43.55411 | 7187 ft | 266 kts | 169° |
| 2026-04-21 21:09 | -22.59167 | -43.54720 | 7084 ft | 253 kts | 156° |
| 2026-04-21 21:09 | -22.60684 | -43.53918 | 7050 ft | 233 kts | 155° |
| 2026-04-21 21:09 | -22.62081 | -43.53173 | 7009 ft | 216 kts | 156° |
| 2026-04-21 21:09 | -22.63401 | -43.52475 | 7040 ft | 206 kts | 156° |
| 2026-04-21 21:10 | -22.64509 | -43.51601 | 7020 ft | 199 kts | 128° |
| 2026-04-21 21:10 | -22.65315 | -43.50359 | 7041 ft | 202 kts | 127° |
| 2026-04-21 21:10 | -22.66129 | -43.49133 | 6984 ft | 200 kts | 127° |
| 2026-04-21 21:10 | -22.66941 | -43.47914 | 6793 ft | 195 kts | 127° |
| 2026-04-21 21:11 | -22.67719 | -43.46747 | 6461 ft | 189 kts | 127° |
| 2026-04-21 21:11 | -22.68460 | -43.45633 | 6184 ft | 174 kts | 127° |
| 2026-04-21 21:11 | -22.69129 | -43.44629 | 5866 ft | 161 kts | 128° |
| 2026-04-21 21:11 | -22.69798 | -43.43670 | 5499 ft | 157 kts | 128° |
| 2026-04-21 21:12 | -22.70447 | -43.42725 | 5119 ft | 155 kts | 127° |
| 2026-04-21 21:12 | -22.71064 | -43.41794 | 4783 ft | 152 kts | 124° |
| 2026-04-21 21:12 | -22.71666 | -43.40855 | 4431 ft | 153 kts | 125° |
| 2026-04-21 21:12 | -22.72280 | -43.39916 | 4039 ft | 151 kts | 126° |
| 2026-04-21 21:13 | -22.72891 | -43.38988 | 3594 ft | 150 kts | 126° |
| 2026-04-21 21:13 | -22.73490 | -43.38081 | 3203 ft | 146 kts | 127° |
| 2026-04-21 21:13 | -22.74075 | -43.37197 | 2818 ft | 143 kts | 128° |
| 2026-04-21 21:13 | -22.74645 | -43.36337 | 2454 ft | 141 kts | 128° |
| 2026-04-21 21:14 | -22.75220 | -43.35473 | 2097 ft | 143 kts | 128° |
| 2026-04-21 21:14 | -22.75794 | -43.34604 | 1748 ft | 141 kts | 128° |
| 2026-04-21 21:14 | -22.76355 | -43.33755 | 1525 ft | 137 kts | 128° |
| 2026-04-21 21:14 | -22.76915 | -43.32910 | 1364 ft | 139 kts | 128° |
| 2026-04-21 21:15 | -22.77495 | -43.32034 | 1213 ft | 142 kts | 127° |
| 2026-04-21 21:15 | -22.78066 | -43.31173 | 1020 ft | 141 kts | 128° |
| 2026-04-21 21:15 | -22.78638 | -43.30312 | 836 ft | 139 kts | 127° |
| 2026-04-21 21:15 | -22.79197 | -43.29468 | 670 ft | 137 kts | 126° |
| 2026-04-21 21:16 | -22.79740 | -43.28611 | 529 ft | 138 kts | 124° |
| 2026-04-21 21:16 | -22.80289 | -43.27758 | 378 ft | 138 kts | 127° |
| 2026-04-21 21:16 | -22.80867 | -43.26921 | 186 ft | 136 kts | 126° |
| 2026-04-21 21:16 | -22.81401 | -43.26114 | 38 ft | 123 kts | 127° |
| 2026-04-21 21:17 | -22.81844 | -43.25460 | 27 ft | 87 kts | 127° |
| 2026-04-21 21:17 | -22.82124 | -43.25041 | 22 ft | 61 kts | 123° |
| 2026-04-21 21:17 | -22.82329 | -43.24703 | 19 ft | 43 kts | 107° |
| 2026-04-21 21:17 | -22.82368 | -43.24480 | 19 ft | 19 kts | 98° |
| 2026-04-21 21:18 | -22.82396 | -43.24356 | 18 ft | 15 kts | 122° |
| 2026-04-21 21:18 | -22.82455 | -43.24264 | 20 ft | 14 kts | 124° |
| 2026-04-21 21:18 | -22.82512 | -43.24179 | 20 ft | 14 kts | 126° |
| 2026-04-21 21:18 | -22.82565 | -43.24099 | 21 ft | 10 kts | 121° |
| 2026-04-21 21:19 | -22.82547 | -43.24065 | 20 ft | 5 kts | 1° |
| 2026-04-21 21:19 | -22.82533 | -43.24094 | 20 ft | 5 kts | 261° |
| 2026-04-21 21:19 | -22.82533 | -43.24131 | 20 ft | 5 kts | 280° |
| 2026-04-21 21:19 | -22.82519 | -43.24165 | 20 ft | 5 kts | 301° |
| 2026-04-21 21:20 | -22.82501 | -43.24195 | 20 ft | 5 kts | 304° |
| 2026-04-21 21:20 | -22.82475 | -43.24235 | 20 ft | 9 kts | 306° |
| 2026-04-21 21:20 | -22.82435 | -43.24294 | 20 ft | 10 kts | 305° |
| 2026-04-21 21:20 | -22.82395 | -43.24355 | 18 ft | 10 kts | 305° |
| 2026-04-21 21:21 | -22.82352 | -43.24421 | 17 ft | 11 kts | 305° |
| 2026-04-21 21:21 | -22.82310 | -43.24484 | 18 ft | 10 kts | 306° |
| 2026-04-21 21:21 | -22.82261 | -43.24557 | 20 ft | 14 kts | 306° |
| 2026-04-21 21:21 | -22.82194 | -43.24659 | 18 ft | 18 kts | 305° |
| 2026-04-21 21:22 | -22.82098 | -43.24720 | 20 ft | 18 kts | 24° |
| 2026-04-21 21:22 | -22.82000 | -43.24647 | 22 ft | 17 kts | 34° |
| 2026-04-21 21:22 | -22.81894 | -43.24606 | 20 ft | 16 kts | 14° |
| 2026-04-21 21:22 | -22.81793 | -43.24557 | 21 ft | 16 kts | 358° |
| 2026-04-21 21:23 | -22.81705 | -43.24619 | 21 ft | 14 kts | 310° |
| 2026-04-21 21:23 | -22.81650 | -43.24700 | 21 ft | 13 kts | 304° |
| 2026-04-21 21:23 | -22.81603 | -43.24775 | 21 ft | 9 kts | 313° |
| 2026-04-21 21:23 | -22.81561 | -43.24764 | 23 ft | 4 kts | 38° |
| 2026-04-21 21:24 | -22.81550 | -43.24754 | 21 ft | 0 kts | 41° |